createdAt,value
2018-10-11T00:01:04.529Z,62.70
2018-10-11T00:03:32.207Z,62.40
2018-10-11T00:05:59.854Z,62.30
2018-10-11T00:08:27.564Z,61.80
2018-10-11T00:10:55.266Z,61.60
2018-10-11T00:13:22.975Z,62.60
2018-10-11T00:15:50.710Z,62.90
2018-10-11T00:18:18.398Z,63.20
2018-10-11T00:20:46.075Z,62.80
2018-10-11T00:23:13.797Z,63.10
2018-10-11T00:25:41.458Z,63.60
2018-10-11T00:28:09.159Z,62.90
2018-10-11T00:30:36.906Z,63.00
2018-10-11T00:33:04.554Z,63.10
2018-10-11T00:35:32.228Z,64.50
2018-10-11T00:38:00.138Z,63.80
2018-10-11T00:40:27.817Z,63.50
2018-10-11T00:42:55.732Z,64.40
2018-10-11T00:45:24.056Z,65.30
2018-10-11T00:47:51.880Z,63.80
2018-10-11T00:50:19.555Z,63.60
2018-10-11T00:52:47.251Z,64.10
2018-10-11T00:55:14.900Z,63.80
2018-10-11T00:57:42.641Z,65.20
2018-10-11T01:00:10.385Z,65.90
2018-10-11T01:02:38.159Z,65.60
2018-10-11T01:05:06.321Z,64.60
2018-10-11T01:07:34.045Z,63.80
2018-10-11T01:10:01.796Z,63.70
2018-10-11T01:12:29.416Z,64.30
2018-10-11T01:14:57.085Z,65.70
2018-10-11T01:17:24.967Z,65.70
2018-10-11T01:19:52.736Z,65.50
2018-10-11T01:22:20.465Z,64.80
2018-10-11T01:24:48.145Z,64.70
2018-10-11T01:27:16.281Z,66.40
2018-10-11T01:29:44.039Z,66.60
2018-10-11T01:32:11.797Z,66.50
2018-10-11T01:34:39.475Z,67.00
2018-10-11T01:37:07.591Z,65.90
2018-10-11T01:39:35.341Z,65.20
2018-10-11T01:42:03.194Z,65.30
2018-10-11T01:44:30.887Z,65.80
2018-10-11T01:46:58.589Z,66.40
2018-10-11T01:49:26.291Z,66.00
2018-10-11T01:51:53.984Z,65.80
2018-10-11T01:54:21.726Z,65.40
2018-10-11T01:56:49.493Z,65.60
2018-10-11T01:59:17.235Z,66.00
2018-10-11T02:01:44.936Z,65.60
2018-10-11T02:04:12.641Z,65.10
2018-10-11T02:06:40.323Z,65.10
2018-10-11T02:09:08.061Z,65.00
2018-10-11T02:11:35.792Z,64.50
2018-10-11T02:14:03.584Z,63.90
2018-10-11T02:16:31.382Z,63.30
2018-10-11T02:18:59.113Z,64.80
2018-10-11T02:21:26.838Z,66.20
2018-10-11T02:23:54.633Z,65.00
2018-10-11T02:26:22.389Z,64.50
2018-10-11T02:28:50.845Z,64.30
2018-10-11T02:31:18.509Z,64.40
2018-10-11T02:33:46.228Z,63.80
2018-10-11T02:36:13.923Z,63.90
2018-10-11T02:38:41.661Z,64.90
2018-10-11T02:41:09.353Z,64.60
2018-10-11T02:43:37.090Z,63.20
2018-10-11T02:46:04.767Z,63.50
2018-10-11T02:48:32.428Z,63.50
2018-10-11T02:51:00.144Z,63.60
2018-10-11T02:53:27.910Z,64.30
2018-10-11T02:55:55.732Z,64.10
2018-10-11T02:58:34.711Z,63.60
2018-10-11T03:01:02.551Z,63.50
2018-10-11T03:03:30.308Z,64.30
2018-10-11T03:06:00.267Z,63.90
2018-10-11T03:08:28.342Z,64.20
2018-10-11T03:10:56.437Z,65.20
2018-10-11T03:13:24.141Z,64.80
2018-10-11T03:15:51.844Z,64.50
2018-10-11T03:18:19.558Z,64.40
2018-10-11T03:20:47.290Z,64.00
2018-10-11T03:23:15.301Z,65.10
2018-10-11T03:25:44.319Z,64.60
2018-10-11T03:28:13.808Z,63.90
2018-10-11T03:30:42.264Z,64.50
2018-10-11T03:33:10.451Z,64.50
2018-10-11T03:35:38.563Z,65.30
2018-10-11T03:38:06.236Z,64.80
2018-10-11T03:40:33.904Z,64.30
2018-10-11T03:43:01.580Z,64.60
2018-10-11T03:45:29.300Z,64.30
2018-10-11T03:47:56.971Z,64.40
2018-10-11T03:50:25.181Z,64.00
2018-10-11T03:52:52.820Z,64.50
2018-10-11T03:55:20.508Z,64.30
2018-10-11T03:57:48.126Z,64.10
2018-10-11T04:00:15.800Z,64.60
2018-10-11T04:02:43.566Z,63.70
2018-10-11T04:05:11.323Z,63.60
2018-10-11T04:07:39.387Z,64.10
2018-10-11T04:10:07.086Z,64.50
2018-10-11T04:12:34.808Z,64.90
2018-10-11T04:15:02.568Z,64.70
2018-10-11T04:17:30.192Z,65.40
2018-10-11T04:19:58.068Z,65.00
2018-10-11T04:22:25.988Z,66.10
2018-10-11T04:24:53.776Z,65.40
2018-10-11T04:27:21.416Z,64.10
2018-10-11T04:29:49.140Z,64.70
2018-10-11T04:32:17.055Z,64.00
2018-10-11T04:34:44.693Z,63.80
2018-10-11T04:37:12.439Z,64.30
2018-10-11T04:39:40.356Z,65.50
2018-10-11T04:42:08.296Z,65.60
2018-10-11T04:44:36.520Z,65.10
2018-10-11T04:47:04.963Z,64.50
2018-10-11T04:49:32.831Z,65.10
2018-10-11T04:52:00.806Z,65.70
2018-10-11T04:54:28.384Z,66.10
2018-10-11T04:56:55.936Z,65.60
2018-10-11T04:59:23.906Z,65.40
2018-10-11T05:01:51.466Z,64.50
2018-10-11T05:04:19.097Z,64.20
2018-10-11T05:06:46.789Z,64.30
2018-10-11T05:09:14.361Z,64.60
2018-10-11T05:11:42.529Z,64.50
2018-10-11T05:14:12.524Z,64.60
2018-10-11T05:16:40.125Z,65.40
2018-10-11T05:19:08.176Z,66.20
2018-10-11T05:21:36.089Z,65.90
2018-10-11T05:24:03.640Z,66.50
2018-10-11T05:26:31.217Z,66.20
2018-10-11T05:28:59.017Z,66.50
2018-10-11T05:31:27.336Z,65.90
2018-10-11T05:33:54.942Z,65.50
2018-10-11T05:36:22.511Z,66.20
2018-10-11T05:38:50.073Z,66.80
2018-10-11T05:41:17.661Z,65.80
2018-10-11T05:43:45.341Z,66.00
2018-10-11T05:46:29.173Z,66.40
2018-10-11T05:48:57.788Z,67.20
2018-10-11T05:51:25.502Z,67.90
2018-10-11T05:53:54.300Z,67.20
2018-10-11T05:56:22.695Z,67.10
2018-10-11T05:58:50.503Z,66.80
2018-10-11T06:01:18.218Z,67.70
2018-10-11T06:03:46.420Z,67.00
2018-10-11T06:06:14.264Z,66.20
2018-10-11T06:08:42.062Z,66.30
2018-10-11T06:11:09.987Z,65.40
2018-10-11T06:13:37.768Z,66.00
2018-10-11T06:16:05.748Z,66.20
2018-10-11T06:18:33.424Z,67.50
2018-10-11T06:21:01.117Z,67.70
2018-10-11T06:23:29.111Z,67.00
2018-10-11T06:25:56.741Z,66.60
2018-10-11T06:28:24.745Z,66.90
2018-10-11T06:30:52.769Z,68.40
2018-10-11T06:33:20.431Z,68.20
2018-10-11T06:35:48.342Z,68.80
2018-10-11T06:38:16.249Z,69.70
2018-10-11T06:40:43.919Z,69.90
2018-10-11T06:43:11.573Z,69.40
2018-10-11T06:45:39.220Z,69.30
2018-10-11T06:48:09.092Z,69.70
2018-10-11T06:50:36.818Z,70.00
2018-10-11T06:53:04.507Z,70.90
2018-10-11T06:55:32.131Z,71.40
2018-10-11T06:57:59.794Z,72.20
2018-10-11T07:00:27.400Z,72.70
2018-10-11T07:02:54.989Z,73.00
2018-10-11T07:05:22.732Z,73.30
2018-10-11T07:07:50.345Z,73.70
2018-10-11T07:10:17.990Z,74.60
2018-10-11T07:12:45.592Z,75.00
2018-10-11T07:15:13.273Z,75.90
2018-10-11T07:17:41.117Z,76.20
2018-10-11T07:20:08.779Z,76.80
2018-10-11T07:22:36.340Z,77.10
2018-10-11T07:25:04.262Z,77.20
2018-10-11T07:27:31.869Z,77.20
2018-10-11T07:29:59.428Z,78.10
2018-10-11T07:32:27.269Z,77.60
2018-10-11T07:34:54.924Z,79.20
2018-10-11T07:37:22.525Z,79.90
2018-10-11T07:39:50.123Z,81.50
2018-10-11T07:42:17.740Z,82.30
2018-10-11T07:44:45.400Z,82.00
2018-10-11T07:47:13.064Z,82.00
2018-10-11T07:49:40.649Z,82.30
2018-10-11T07:52:08.296Z,82.60
2018-10-11T07:54:36.079Z,82.70
2018-10-11T07:57:04.090Z,82.50
2018-10-11T07:59:31.682Z,83.20
2018-10-11T08:01:59.281Z,84.00
2018-10-11T08:04:26.861Z,84.40
2018-10-11T08:06:54.492Z,84.60
2018-10-11T08:09:22.117Z,84.80
2018-10-11T08:11:49.873Z,84.80
2018-10-11T08:14:17.872Z,84.90
2018-10-11T08:16:46.033Z,83.90
2018-10-11T08:19:13.985Z,83.80
2018-10-11T08:21:41.452Z,84.30
2018-10-11T08:24:09.522Z,85.00
2018-10-11T08:26:37.366Z,85.60
2018-10-11T08:29:05.337Z,86.50
2018-10-11T08:31:32.933Z,87.50
2018-10-11T08:34:00.723Z,87.50
2018-10-11T08:36:28.296Z,87.50
2018-10-11T08:38:55.894Z,87.50
2018-10-11T08:41:23.654Z,87.10
2018-10-11T08:43:51.262Z,86.50
2018-10-11T08:46:18.868Z,86.30
2018-10-11T08:48:46.446Z,85.90
2018-10-11T08:51:14.195Z,85.10
2018-10-11T08:53:41.814Z,83.40
2018-10-11T08:56:09.467Z,82.00
2018-10-11T08:58:36.988Z,81.70
2018-10-11T09:01:04.557Z,80.40
2018-10-11T09:03:32.171Z,79.50
2018-10-11T09:05:59.746Z,78.70
2018-10-11T09:08:27.290Z,77.30
2018-10-11T09:10:55.085Z,76.60
2018-10-11T09:13:22.590Z,75.70
2018-10-11T09:15:50.236Z,73.90
2018-10-11T09:18:17.926Z,73.80
2018-10-11T09:20:45.506Z,73.30
2018-10-11T09:23:13.083Z,72.70
2018-10-11T09:25:40.681Z,70.60
2018-10-11T09:28:08.292Z,69.40
2018-10-11T09:30:35.898Z,68.80
2018-10-11T09:33:03.493Z,68.80
2018-10-11T09:35:31.077Z,67.90
2018-10-11T09:37:58.652Z,67.90
2018-10-11T09:40:26.187Z,66.90
2018-10-11T09:42:53.827Z,66.80
2018-10-11T09:45:21.424Z,65.30
2018-10-11T09:50:27.364Z,65.70
2018-10-11T09:52:54.969Z,63.80
2018-10-11T09:55:22.525Z,63.40
2018-10-11T09:57:50.383Z,62.60
2018-10-11T10:00:23.645Z,62.80
2018-10-11T10:02:51.553Z,61.60
2018-10-11T10:05:19.240Z,61.30
2018-10-11T10:07:46.854Z,60.30
2018-10-11T10:10:14.457Z,60.20
2018-10-11T10:12:42.085Z,60.20
2018-10-11T10:15:09.658Z,59.60
2018-10-11T10:17:37.276Z,59.20
2018-10-11T10:20:05.261Z,58.50
2018-10-11T10:22:32.960Z,58.70
2018-10-11T10:25:00.519Z,58.10
2018-10-11T10:27:28.170Z,57.80
2018-10-11T10:29:55.767Z,56.60
2018-10-11T10:32:23.417Z,56.50
2018-10-11T10:34:51.020Z,56.60
2018-10-11T10:37:19.024Z,56.80
2018-10-11T10:39:46.657Z,56.40
2018-10-11T10:42:14.181Z,55.00
2018-10-11T10:44:41.786Z,54.60
2018-10-11T10:47:09.565Z,54.70
2018-10-11T10:49:37.117Z,54.40
2018-10-11T10:52:04.727Z,54.40
2018-10-11T10:54:33.571Z,54.50
2018-10-11T10:57:01.489Z,54.10
2018-10-11T10:59:29.163Z,53.60
2018-10-11T11:01:56.839Z,53.80
2018-10-11T11:04:24.610Z,53.70
2018-10-11T11:06:52.290Z,53.40
2018-10-11T11:09:19.858Z,53.20
2018-10-11T11:11:47.610Z,52.80
2018-10-11T11:14:15.816Z,52.50
2018-10-11T11:16:44.116Z,52.00
2018-10-11T11:19:12.119Z,52.00
2018-10-11T11:21:39.824Z,51.90
2018-10-11T11:24:07.447Z,52.10
2018-10-11T11:26:35.117Z,51.50
2018-10-11T11:29:02.944Z,51.40
2018-10-11T11:31:31.020Z,51.60
2018-10-11T11:33:59.437Z,52.30
2018-10-11T11:36:27.716Z,51.40
2018-10-11T11:38:55.312Z,50.50
2018-10-11T11:41:22.899Z,50.80
2018-10-11T11:43:50.472Z,51.10
2018-10-11T11:46:18.072Z,51.40
2018-10-11T11:48:45.648Z,50.20
2018-10-11T11:51:13.372Z,50.00
2018-10-11T11:53:42.192Z,49.60
2018-10-11T11:56:09.977Z,49.70
2018-10-11T11:58:38.164Z,49.20
2018-10-11T12:01:05.928Z,49.20
2018-10-11T12:03:33.564Z,50.00
2018-10-11T12:06:01.294Z,49.10
2018-10-11T12:08:29.838Z,48.60
2018-10-11T12:10:57.612Z,47.50
2018-10-11T12:13:25.043Z,48.00
2018-10-11T12:15:52.597Z,46.90
2018-10-11T12:18:20.496Z,47.50
2018-10-11T12:20:48.071Z,47.40
2018-10-11T12:23:15.697Z,48.10
2018-10-11T12:25:43.300Z,47.20
2018-10-11T12:28:10.958Z,46.50
2018-10-11T12:30:38.564Z,47.70
2018-10-11T12:33:06.304Z,48.10
2018-10-11T12:35:33.856Z,48.30
2018-10-11T12:38:01.675Z,48.30
2018-10-11T12:40:29.230Z,48.10
2018-10-11T12:42:56.826Z,48.30
2018-10-11T12:45:24.490Z,48.80
2018-10-11T12:47:52.028Z,49.10
2018-10-11T12:50:19.621Z,49.00
2018-10-11T12:52:47.309Z,49.60
2018-10-11T12:55:15.104Z,49.40
2018-10-11T12:57:42.763Z,49.30
2018-10-11T13:00:12.990Z,49.20
2018-10-11T13:02:40.630Z,49.60
2018-10-11T13:05:08.383Z,49.60
2018-10-11T13:07:35.970Z,49.40
2018-10-11T13:10:03.956Z,49.30
2018-10-11T13:12:31.736Z,49.20
2018-10-11T13:14:59.290Z,49.00
2018-10-11T13:17:27.203Z,48.80
2018-10-11T13:19:54.924Z,48.60
2018-10-11T13:22:22.570Z,48.50
2018-10-11T13:24:50.210Z,49.00
2018-10-11T13:27:17.797Z,49.30
2018-10-11T13:29:45.464Z,49.00
2018-10-11T13:32:14.016Z,48.70
2018-10-11T13:34:41.690Z,48.40
2018-10-11T13:37:09.284Z,48.70
2018-10-11T13:39:37.102Z,48.60
2018-10-11T13:42:04.672Z,48.80
2018-10-11T13:44:32.321Z,49.00
2018-10-11T13:47:00.001Z,48.80
2018-10-11T13:49:27.572Z,48.70
2018-10-11T13:51:55.279Z,48.60
2018-10-11T13:54:22.857Z,49.20
2018-10-11T13:56:55.534Z,49.10
2018-10-11T13:59:18.092Z,48.90
2018-10-11T14:01:45.801Z,48.80
2018-10-11T14:04:13.444Z,48.70
2018-10-11T14:06:41.016Z,48.70
2018-10-11T14:09:10.218Z,48.40
2018-10-11T14:11:38.376Z,48.60
2018-10-11T14:14:05.995Z,48.80
2018-10-11T14:16:33.579Z,49.20
2018-10-11T14:19:01.261Z,49.00
2018-10-11T14:21:29.061Z,49.20
2018-10-11T14:23:57.052Z,48.60
2018-10-11T14:26:24.643Z,48.60
2018-10-11T14:28:52.519Z,48.60
2018-10-11T14:31:21.016Z,48.50
2018-10-11T14:33:48.588Z,48.80
2018-10-11T14:36:16.573Z,48.30
2018-10-11T14:38:44.108Z,48.20
2018-10-11T14:41:11.709Z,48.30
2018-10-11T14:43:39.311Z,48.30
2018-10-11T14:46:07.236Z,48.50
2018-10-11T14:48:34.839Z,48.70
2018-10-11T14:51:02.550Z,48.80
2018-10-11T14:53:30.056Z,48.60
2018-10-11T14:55:57.660Z,48.60
2018-10-11T14:58:25.233Z,48.20
2018-10-11T15:00:52.832Z,48.10
2018-10-11T15:03:20.484Z,48.40
2018-10-11T15:05:48.033Z,48.50
2018-10-11T15:08:15.594Z,48.70
2018-10-11T15:10:43.228Z,48.60
2018-10-11T15:13:10.811Z,48.70
2018-10-11T15:15:38.408Z,48.70
2018-10-11T15:18:06.174Z,48.70
2018-10-11T15:20:33.744Z,48.70
2018-10-11T15:23:01.336Z,49.00
2018-10-11T15:25:28.972Z,49.30
2018-10-11T15:27:56.601Z,49.00
2018-10-11T15:30:24.161Z,48.80
2018-10-11T15:32:51.795Z,48.80
2018-10-11T15:35:19.339Z,49.20
2018-10-11T15:37:46.929Z,50.40
2018-10-11T15:40:14.731Z,50.90
2018-10-11T15:42:42.348Z,50.70
2018-10-11T15:45:09.901Z,51.00
2018-10-11T15:47:37.652Z,51.10
2018-10-11T15:50:05.520Z,51.70
2018-10-11T15:52:33.335Z,52.00
2018-10-11T15:55:01.010Z,52.40
2018-10-11T15:57:28.602Z,53.40
2018-10-11T15:59:56.174Z,53.50
2018-10-11T16:02:24.014Z,53.80
2018-10-11T16:04:51.652Z,54.10
2018-10-11T16:07:19.262Z,54.40
2018-10-11T16:09:46.885Z,54.50
2018-10-11T16:12:14.471Z,55.00
2018-10-11T16:14:42.341Z,55.20
2018-10-11T16:17:09.929Z,55.40
2018-10-11T16:19:37.542Z,55.80
2018-10-11T16:22:05.116Z,56.40
2018-10-11T16:24:32.757Z,56.50
2018-10-11T16:27:00.335Z,56.50
2018-10-11T16:29:27.936Z,56.60
2018-10-11T16:31:55.635Z,56.90
2018-10-11T16:34:23.480Z,57.00
2018-10-11T16:36:51.025Z,57.30
2018-10-11T16:39:18.624Z,57.50
2018-10-11T16:41:46.300Z,58.00
2018-10-11T16:44:13.943Z,57.60
2018-10-11T16:46:41.494Z,57.70
2018-10-11T16:49:09.311Z,57.80
2018-10-11T16:51:37.449Z,57.90
2018-10-11T16:54:05.041Z,57.40
2018-10-11T16:56:32.640Z,57.40
2018-10-11T16:59:00.192Z,57.20
2018-10-11T17:01:27.803Z,57.10
2018-10-11T17:03:55.456Z,57.40
2018-10-11T17:06:23.016Z,58.00
2018-10-11T17:08:50.572Z,58.10
2018-10-11T17:11:18.168Z,58.00
2018-10-11T17:13:45.855Z,57.90
2018-10-11T17:16:13.473Z,57.90
2018-10-11T17:18:41.048Z,58.40
2018-10-11T17:21:08.769Z,58.40
2018-10-11T17:23:36.385Z,57.70
2018-10-11T17:26:04.977Z,57.90
2018-10-11T17:28:32.593Z,58.50
2018-10-11T17:31:00.136Z,58.30
2018-10-11T17:33:27.760Z,58.20
2018-10-11T17:35:56.093Z,58.40
2018-10-11T17:38:23.666Z,58.90
2018-10-11T17:40:51.276Z,59.50
2018-10-11T17:43:18.910Z,59.20
2018-10-11T17:45:46.502Z,59.40
2018-10-11T17:48:14.125Z,59.30
2018-10-11T17:50:41.753Z,59.60
2018-10-11T17:53:09.661Z,59.90
2018-10-11T17:55:37.192Z,60.10
2018-10-11T17:58:05.093Z,61.00
2018-10-11T18:00:32.756Z,61.20
2018-10-11T18:03:00.381Z,61.30
2018-10-11T18:05:27.969Z,61.70
2018-10-11T18:07:55.582Z,62.00
2018-10-11T18:10:23.157Z,62.00
2018-10-11T18:12:50.921Z,61.80
2018-10-11T18:15:18.712Z,62.40
2018-10-11T18:17:46.628Z,63.00
2018-10-11T18:20:14.197Z,63.00
2018-10-11T18:22:41.768Z,63.70
2018-10-11T18:25:09.389Z,63.10
2018-10-11T18:27:37.011Z,62.90
2018-10-11T18:30:05.020Z,62.90
2018-10-11T18:32:32.626Z,63.00
2018-10-11T18:35:00.283Z,62.90
2018-10-11T18:37:28.134Z,63.00
2018-10-11T18:39:55.754Z,63.10
2018-10-11T18:42:23.461Z,62.90
2018-10-11T18:44:51.387Z,63.30
2018-10-11T18:47:18.881Z,63.40
2018-10-11T18:49:46.498Z,63.40
2018-10-11T18:52:14.150Z,63.60
2018-10-11T18:54:41.728Z,63.50
2018-10-11T18:57:09.467Z,64.80
2018-10-11T18:59:37.048Z,64.00
2018-10-11T19:02:04.633Z,63.90
2018-10-11T19:04:32.237Z,64.40
2018-10-11T19:06:59.890Z,65.10
2018-10-11T19:09:27.461Z,65.20
2018-10-11T19:11:55.113Z,64.90
2018-10-11T19:14:23.025Z,64.00
2018-10-11T19:16:50.632Z,64.30
2018-10-11T19:19:19.052Z,63.90
2018-10-11T19:21:46.620Z,64.40
2018-10-11T19:24:14.172Z,63.60
2018-10-11T19:26:41.911Z,63.50
2018-10-11T19:29:09.509Z,62.90
2018-10-11T19:31:37.102Z,63.10
2018-10-11T19:34:04.712Z,63.70
2018-10-11T19:36:32.288Z,63.30
2018-10-11T19:39:00.636Z,62.90
2018-10-11T19:41:28.168Z,62.20
2018-10-11T19:43:55.798Z,62.70
2018-10-11T19:46:23.508Z,63.40
2018-10-11T19:48:51.090Z,63.40
2018-10-11T19:51:18.647Z,63.50
2018-10-11T19:53:46.260Z,63.70
2018-10-11T19:56:13.930Z,64.20
2018-10-11T19:58:41.459Z,64.00
2018-10-11T20:01:09.320Z,63.40
2018-10-11T20:03:36.949Z,63.30
2018-10-11T20:06:04.576Z,63.50
2018-10-11T20:08:32.224Z,62.60
2018-10-11T20:10:59.913Z,63.20
2018-10-11T20:13:27.508Z,62.70
2018-10-11T20:15:55.097Z,62.30
2018-10-11T20:18:22.722Z,62.20
2018-10-11T20:20:50.454Z,62.10
2018-10-11T20:23:18.064Z,62.70
2018-10-11T20:25:45.737Z,63.00
2018-10-11T20:28:13.279Z,63.10
2018-10-11T20:30:40.936Z,63.30
2018-10-11T20:33:08.690Z,62.70
2018-10-11T20:35:36.278Z,62.80
2018-10-11T20:38:03.941Z,63.40
2018-10-11T20:40:31.637Z,63.10
2018-10-11T20:42:59.221Z,63.60
2018-10-11T20:45:26.801Z,63.30
2018-10-11T20:47:54.393Z,63.10
2018-10-11T20:50:21.976Z,63.10
2018-10-11T20:52:49.557Z,63.40
2018-10-11T20:55:17.169Z,63.50
2018-10-11T20:57:44.836Z,64.50
2018-10-11T21:00:12.471Z,65.20
2018-10-11T21:02:40.064Z,65.60
2018-10-11T21:05:07.680Z,65.90
2018-10-11T21:07:35.284Z,66.60
2018-10-11T21:10:02.945Z,66.70
2018-10-11T21:12:30.547Z,66.50
2018-10-11T21:14:58.126Z,65.80
2018-10-11T21:17:25.681Z,65.90
2018-10-11T21:19:53.327Z,65.70
2018-10-11T21:22:20.896Z,65.70
2018-10-11T21:24:48.501Z,66.00
2018-10-11T21:27:16.087Z,65.90
2018-10-11T21:29:43.716Z,65.90
2018-10-11T21:32:11.325Z,66.40
2018-10-11T21:34:39.279Z,66.90
2018-10-11T21:37:06.884Z,66.80
2018-10-11T21:39:34.451Z,67.60
2018-10-11T21:42:02.036Z,67.90
2018-10-11T21:44:30.042Z,68.90
2018-10-11T21:46:57.853Z,68.80
2018-10-11T21:49:25.439Z,68.70
2018-10-11T21:51:53.051Z,67.80
2018-10-11T21:54:20.631Z,68.50
2018-10-11T21:56:48.229Z,68.40
2018-10-11T21:59:15.839Z,67.80
2018-10-11T22:01:43.448Z,67.60
2018-10-11T22:04:11.376Z,67.70
2018-10-11T22:06:39.020Z,67.50
2018-10-11T22:09:06.781Z,69.00
2018-10-11T22:11:34.394Z,68.50
2018-10-11T22:14:02.021Z,68.60
2018-10-11T22:16:29.641Z,69.00
2018-10-11T22:18:57.238Z,69.00
2018-10-11T22:21:24.997Z,69.00
2018-10-11T22:23:52.549Z,69.10
2018-10-11T22:26:20.206Z,69.80
2018-10-11T22:28:47.828Z,70.30
2018-10-11T22:31:15.550Z,69.90
2018-10-11T22:33:43.094Z,69.90
2018-10-11T22:36:12.058Z,70.00
2018-10-11T22:38:40.244Z,70.40
2018-10-11T22:41:08.522Z,70.60
2018-10-11T22:43:36.194Z,70.40
2018-10-11T22:46:03.883Z,70.40
2018-10-11T22:48:31.578Z,70.60
2018-10-11T22:50:59.180Z,70.70
2018-10-11T22:53:26.764Z,70.50
2018-10-11T22:55:54.355Z,70.00
2018-10-11T22:58:21.942Z,69.70
2018-10-11T23:00:49.699Z,69.40
2018-10-11T23:03:17.256Z,68.80
2018-10-11T23:05:45.023Z,68.60
2018-10-11T23:08:12.612Z,68.90
2018-10-11T23:10:40.185Z,68.20
2018-10-11T23:13:07.775Z,68.30
2018-10-11T23:15:35.399Z,67.10
2018-10-11T23:18:03.022Z,66.00
2018-10-11T23:20:30.629Z,65.80
2018-10-11T23:22:58.323Z,66.20
2018-10-11T23:25:25.886Z,67.30
2018-10-11T23:27:53.524Z,66.90
2018-10-11T23:30:21.188Z,65.50
2018-10-11T23:32:48.964Z,64.90
2018-10-11T23:35:16.540Z,65.50
2018-10-11T23:37:44.181Z,65.50
2018-10-11T23:40:11.896Z,65.90
2018-10-11T23:42:40.152Z,66.40
2018-10-11T23:45:09.117Z,65.60
2018-10-11T23:47:36.692Z,65.30
2018-10-11T23:50:04.589Z,64.70
2018-10-11T23:52:32.662Z,65.00
2018-10-11T23:55:00.216Z,66.70
2018-10-11T23:57:27.811Z,65.50
2018-10-11T23:59:55.427Z,65.20
